createdAt,value
2023-05-20T00:00:36.677Z,9.50
2023-05-20T00:01:43.879Z,7.30
2023-05-20T00:02:46.333Z,8.20
2023-05-20T00:03:49.575Z,8.45
2023-05-20T00:04:52.280Z,9.30
2023-05-20T00:05:54.767Z,6.30
2023-05-20T00:06:57.568Z,9.40
2023-05-20T00:09:10.066Z,8.90
2023-05-20T00:10:13.026Z,8.20
2023-05-20T00:11:15.268Z,8.80
2023-05-20T00:12:17.621Z,8.10
2023-05-20T00:13:19.936Z,8.50
2023-05-20T00:14:22.123Z,7.60
2023-05-20T00:15:25.566Z,9.40
2023-05-20T00:16:30.774Z,8.90
2023-05-20T00:17:36.500Z,9.30
2023-05-20T00:18:42.163Z,8.90
2023-05-20T00:19:46.793Z,8.90
2023-05-20T00:20:59.728Z,9.20
2023-05-20T00:22:03.546Z,9.40
2023-05-20T00:23:05.911Z,9.20
2023-05-20T00:24:09.784Z,8.30
2023-05-20T00:25:12.049Z,9.10
2023-05-20T00:26:15.996Z,7.80
2023-05-20T00:27:20.141Z,7.70
2023-05-20T00:28:22.372Z,8.30
2023-05-20T00:30:42.783Z,9.10
2023-05-20T00:31:45.062Z,8.20
2023-05-20T00:32:47.379Z,8.20
2023-05-20T00:33:50.041Z,7.50
2023-05-20T00:34:56.643Z,8.30
2023-05-20T00:35:58.868Z,8.60
2023-05-20T00:37:01.510Z,8.40
2023-05-20T00:38:04.275Z,8.80
2023-05-20T00:40:16.346Z,8.80
2023-05-20T00:41:18.705Z,8.10
2023-05-20T00:42:24.571Z,9.40
2023-05-20T00:43:27.452Z,9.40
2023-05-20T00:44:29.771Z,6.60
2023-05-20T00:45:32.464Z,7.80
2023-05-20T00:46:35.252Z,8.40
2023-05-20T00:47:38.485Z,8.60
2023-05-20T00:48:44.173Z,8.20
2023-05-20T00:49:50.442Z,7.70
2023-05-20T00:52:09.060Z,7.60
2023-05-20T00:53:12.524Z,8.30
2023-05-20T00:54:14.913Z,7.60
2023-05-20T00:55:17.608Z,7.50
2023-05-20T00:56:21.680Z,7.50
2023-05-20T00:57:27.989Z,7.20
2023-05-20T00:58:31.277Z,8.00
2023-05-20T00:59:35.821Z,8.30
2023-05-20T01:00:38.733Z,7.30
2023-05-20T01:01:41.741Z,5.10
2023-05-20T01:02:44.417Z,7.70
2023-05-20T01:03:47.286Z,8.50
2023-05-20T01:04:49.767Z,9.40
2023-05-20T01:05:52.308Z,9.09
2023-05-20T01:06:54.819Z,8.80
2023-05-20T01:07:57.364Z,8.60
2023-05-20T01:08:59.818Z,8.50
2023-05-20T01:10:02.278Z,7.60
2023-05-20T01:11:30.801Z,7.00
2023-05-20T01:12:52.293Z,7.60
2023-05-20T01:13:57.845Z,7.60
2023-05-20T01:15:11.374Z,7.50
2023-05-20T01:16:17.061Z,7.90
2023-05-20T01:17:20.454Z,7.50
2023-05-20T01:18:23.408Z,6.90
2023-05-20T01:20:42.228Z,8.10
2023-05-20T01:21:44.926Z,7.70
2023-05-20T01:22:49.303Z,7.60
2023-05-20T01:23:51.512Z,6.60
2023-05-20T01:24:53.932Z,7.60
2023-05-20T01:25:56.217Z,7.60
2023-05-20T01:26:58.720Z,8.20
2023-05-20T01:28:00.892Z,7.10
2023-05-20T01:29:06.032Z,7.70
2023-05-20T01:30:10.697Z,8.20
2023-05-20T01:32:37.873Z,8.20
2023-05-20T01:33:42.944Z,7.70
2023-05-20T01:35:59.299Z,8.10
2023-05-20T01:37:03.601Z,7.91
2023-05-20T01:38:06.637Z,7.60
2023-05-20T01:39:10.872Z,6.70
2023-05-20T01:40:15.548Z,7.40
2023-05-20T01:41:18.090Z,7.50
2023-05-20T01:42:21.345Z,7.50
2023-05-20T01:43:25.738Z,7.70
2023-05-20T01:44:28.223Z,6.70
2023-05-20T01:45:31.330Z,6.20
2023-05-20T01:46:35.981Z,7.80
2023-05-20T01:47:38.464Z,7.20
2023-05-20T01:48:40.685Z,7.10
2023-05-20T01:49:44.195Z,6.50
2023-05-20T01:50:47.156Z,7.73
2023-05-20T01:51:49.433Z,7.20
2023-05-20T01:52:51.750Z,7.60
2023-05-20T01:53:53.744Z,7.40
2023-05-20T01:54:56.064Z,8.10
2023-05-20T01:55:58.355Z,7.30
2023-05-20T01:57:01.383Z,6.91
2023-05-20T01:58:04.335Z,7.40
2023-05-20T01:59:06.814Z,7.00
2023-05-20T02:00:11.693Z,7.55
2023-05-20T02:01:16.823Z,6.70
2023-05-20T02:02:19.460Z,7.20
2023-05-20T02:03:22.360Z,6.80
2023-05-20T02:04:24.803Z,6.82
2023-05-20T02:05:27.446Z,7.50
2023-05-20T02:06:30.095Z,6.90
2023-05-20T02:07:32.398Z,6.00
2023-05-20T02:08:34.718Z,6.60
2023-05-20T02:09:37.534Z,6.60
2023-05-20T02:10:39.905Z,7.18
2023-05-20T02:11:42.235Z,7.50
2023-05-20T02:12:44.524Z,4.90
2023-05-20T02:13:47.407Z,7.10
2023-05-20T02:14:50.071Z,5.80
2023-05-20T02:15:53.213Z,6.70
2023-05-20T02:16:55.744Z,6.55
2023-05-20T02:17:59.422Z,7.20
2023-05-20T02:19:01.885Z,5.80
2023-05-20T02:20:06.255Z,7.20
2023-05-20T02:21:09.529Z,7.70
2023-05-20T02:22:14.061Z,6.80
2023-05-20T02:23:16.196Z,6.80
2023-05-20T02:24:19.640Z,6.70
2023-05-20T02:25:23.376Z,6.80
2023-05-20T02:26:25.503Z,6.90
2023-05-20T02:27:27.766Z,7.40
2023-05-20T02:28:29.961Z,6.40
2023-05-20T02:29:32.216Z,7.10
2023-05-20T02:30:34.357Z,7.90
2023-05-20T02:31:37.697Z,7.20
2023-05-20T02:32:40.024Z,7.60
2023-05-20T02:33:43.170Z,6.90
2023-05-20T02:34:45.672Z,6.90
2023-05-20T02:35:48.022Z,5.90
2023-05-20T02:36:50.229Z,7.18
2023-05-20T02:37:52.590Z,6.70
2023-05-20T02:38:54.871Z,7.10
2023-05-20T02:39:57.090Z,7.00
2023-05-20T02:40:59.823Z,6.10
2023-05-20T02:42:02.155Z,7.20
2023-05-20T02:43:05.016Z,6.90
2023-05-20T02:44:09.134Z,7.00
2023-05-20T02:45:12.546Z,7.40
2023-05-20T02:46:16.057Z,6.80
2023-05-20T02:47:19.046Z,6.50
2023-05-20T02:48:22.266Z,7.10
2023-05-20T02:49:24.655Z,7.90
2023-05-20T02:50:27.528Z,7.18
2023-05-20T02:51:29.833Z,7.60
2023-05-20T02:52:31.945Z,6.60
2023-05-20T02:53:34.223Z,6.30
2023-05-20T02:54:36.524Z,6.60
2023-05-20T02:55:40.303Z,6.70
2023-05-20T02:56:42.523Z,6.40
2023-05-20T02:57:45.847Z,6.40
2023-05-20T02:58:50.082Z,7.00
2023-05-20T02:59:52.685Z,6.30
2023-05-20T03:00:56.626Z,7.50
2023-05-20T03:01:59.397Z,6.50
2023-05-20T03:03:02.068Z,6.70
2023-05-20T03:04:04.534Z,6.90
2023-05-20T03:05:07.386Z,7.00
2023-05-20T03:06:11.140Z,6.20
2023-05-20T03:07:13.384Z,5.60
2023-05-20T03:08:15.682Z,5.90
2023-05-20T03:09:17.985Z,6.50
2023-05-20T03:10:20.288Z,5.80
2023-05-20T03:11:22.628Z,5.30
2023-05-20T03:12:25.077Z,7.00
2023-05-20T03:13:28.200Z,7.20
2023-05-20T03:14:30.593Z,7.30
2023-05-20T03:15:33.164Z,7.20
2023-05-20T03:16:36.204Z,4.60
2023-05-20T03:17:38.709Z,7.90
2023-05-20T03:18:41.130Z,6.40
2023-05-20T03:19:43.418Z,7.00
2023-05-20T03:20:46.579Z,6.80
2023-05-20T03:21:48.888Z,7.64
2023-05-20T03:22:51.221Z,7.10
2023-05-20T03:23:53.804Z,7.40
2023-05-20T03:24:56.448Z,6.20
2023-05-20T03:25:58.738Z,6.20
2023-05-20T03:27:01.092Z,6.60
2023-05-20T03:28:03.394Z,7.80
2023-05-20T03:29:06.420Z,7.18
2023-05-20T03:30:10.938Z,8.40
2023-05-20T03:31:13.429Z,7.30
2023-05-20T03:32:15.993Z,5.91
2023-05-20T03:33:18.751Z,6.30
2023-05-20T03:34:21.234Z,7.27
2023-05-20T03:35:25.217Z,6.00
2023-05-20T03:36:28.268Z,7.80
2023-05-20T03:37:30.603Z,7.60
2023-05-20T03:38:32.829Z,6.80
2023-05-20T03:39:35.354Z,6.50
2023-05-20T03:40:38.925Z,7.80
2023-05-20T03:41:41.537Z,7.36
2023-05-20T03:42:45.548Z,6.80
2023-05-20T03:43:48.240Z,7.20
2023-05-20T03:44:51.680Z,7.27
2023-05-20T03:45:54.162Z,6.80
2023-05-20T03:46:57.946Z,7.10
2023-05-20T03:48:00.641Z,4.10
2023-05-20T03:49:04.717Z,7.00
2023-05-20T03:50:09.060Z,6.90
2023-05-20T03:51:11.490Z,7.70
2023-05-20T03:52:14.229Z,7.20
2023-05-20T03:53:16.899Z,7.30
2023-05-20T03:54:19.634Z,7.00
2023-05-20T03:55:23.965Z,7.20
2023-05-20T03:56:26.281Z,7.20
2023-05-20T03:57:28.618Z,6.70
2023-05-20T03:58:30.852Z,7.20
2023-05-20T03:59:33.109Z,6.80
2023-05-20T04:00:35.559Z,7.90
2023-05-20T04:02:50.248Z,7.70
2023-05-20T04:03:53.870Z,7.80
2023-05-20T04:04:56.707Z,7.20
2023-05-20T04:05:59.166Z,7.70
2023-05-20T04:07:01.845Z,7.60
2023-05-20T04:08:05.131Z,8.40
2023-05-20T04:09:07.339Z,6.70
2023-05-20T04:10:11.648Z,7.40
2023-05-20T04:11:16.307Z,7.50
2023-05-20T04:12:18.628Z,7.50
2023-05-20T04:13:21.256Z,7.80
2023-05-20T04:14:23.852Z,7.80
2023-05-20T04:15:26.492Z,7.90
2023-05-20T04:16:30.682Z,7.50
2023-05-20T04:17:33.126Z,7.20
2023-05-20T04:18:35.647Z,7.30
2023-05-20T04:19:38.078Z,7.30
2023-05-20T04:20:41.688Z,7.00
2023-05-20T04:21:45.608Z,7.50
2023-05-20T04:22:47.945Z,7.50
2023-05-20T04:23:50.651Z,7.50
2023-05-20T04:24:53.366Z,7.30
2023-05-20T04:25:57.095Z,7.40
2023-05-20T04:26:59.482Z,6.60
2023-05-20T04:28:03.852Z,7.60
2023-05-20T04:29:07.705Z,7.00
2023-05-20T04:30:14.144Z,8.70
2023-05-20T04:31:16.732Z,7.10
2023-05-20T04:32:19.320Z,7.70
2023-05-20T04:33:23.551Z,8.10
2023-05-20T04:34:30.426Z,7.10
2023-05-20T04:35:33.068Z,7.10
2023-05-20T04:36:37.719Z,8.60
2023-05-20T04:37:40.284Z,8.00
2023-05-20T04:38:42.574Z,5.70
2023-05-20T04:39:44.771Z,8.80
2023-05-20T04:40:48.949Z,7.10
2023-05-20T04:41:51.876Z,7.60
2023-05-20T04:42:55.273Z,7.18
2023-05-20T04:43:57.725Z,6.70
2023-05-20T04:45:00.169Z,8.70
2023-05-20T04:46:03.185Z,7.90
2023-05-20T04:47:06.040Z,7.70
2023-05-20T04:48:08.511Z,6.00
2023-05-20T04:49:11.684Z,7.40
2023-05-20T04:50:14.423Z,7.64
2023-05-20T04:51:16.776Z,8.50
2023-05-20T04:52:19.167Z,7.40
2023-05-20T04:53:22.572Z,8.10
2023-05-20T04:54:24.814Z,7.80
2023-05-20T04:55:27.173Z,6.60
2023-05-20T04:56:29.845Z,8.10
2023-05-20T04:57:32.606Z,7.40
2023-05-20T04:58:35.263Z,7.40
2023-05-20T04:59:37.560Z,7.30
2023-05-20T05:00:40.636Z,7.90
2023-05-20T05:01:44.154Z,7.90
2023-05-20T05:02:46.913Z,7.80
2023-05-20T05:03:49.459Z,7.60
2023-05-20T05:04:51.686Z,7.80
2023-05-20T05:05:58.004Z,8.00
2023-05-20T05:07:01.447Z,8.30
2023-05-20T05:08:04.962Z,7.18
2023-05-20T05:09:07.483Z,7.20
2023-05-20T05:10:13.022Z,7.00
2023-05-20T05:11:15.735Z,7.40
2023-05-20T05:12:18.464Z,7.20
2023-05-20T05:13:20.902Z,7.60
2023-05-20T05:14:23.872Z,6.80
2023-05-20T05:15:33.465Z,6.80
2023-05-20T05:16:37.907Z,7.20
2023-05-20T05:17:40.266Z,7.20
2023-05-20T05:18:43.217Z,6.55
2023-05-20T05:19:46.156Z,6.36
2023-05-20T05:20:48.864Z,3.50
2023-05-20T05:21:52.353Z,6.80
2023-05-20T05:22:54.696Z,7.00
2023-05-20T05:23:58.465Z,6.70
2023-05-20T05:25:01.549Z,6.50
2023-05-20T05:26:04.513Z,7.64
2023-05-20T05:27:07.819Z,6.40
2023-05-20T05:28:11.243Z,6.70
2023-05-20T05:29:14.432Z,5.90
2023-05-20T05:30:17.213Z,6.90
2023-05-20T05:31:19.738Z,6.27
2023-05-20T05:32:22.157Z,6.50
2023-05-20T05:33:24.761Z,6.30
2023-05-20T05:34:27.555Z,6.40
2023-05-20T05:35:30.342Z,5.90
2023-05-20T05:36:33.560Z,6.30
2023-05-20T05:37:37.001Z,6.40
2023-05-20T05:38:40.080Z,5.70
2023-05-20T05:39:43.343Z,6.30
2023-05-20T05:40:46.267Z,6.60
2023-05-20T05:41:48.543Z,4.80
2023-05-20T05:42:50.644Z,7.20
2023-05-20T05:43:55.170Z,6.00
2023-05-20T05:44:58.110Z,6.60
2023-05-20T05:46:01.174Z,7.60
2023-05-20T05:47:05.273Z,6.55
2023-05-20T05:48:08.746Z,7.50
2023-05-20T05:49:11.430Z,6.00
2023-05-20T05:50:15.353Z,3.40
2023-05-20T05:51:18.590Z,6.80
2023-05-20T05:52:22.074Z,6.60
2023-05-20T05:53:25.321Z,7.30
2023-05-20T05:54:28.384Z,6.30
2023-05-20T05:55:30.964Z,6.70
2023-05-20T05:56:33.551Z,6.20
2023-05-20T05:57:35.626Z,5.50
2023-05-20T05:58:39.519Z,5.90
2023-05-20T05:59:41.868Z,5.70
2023-05-20T06:00:45.109Z,6.27
2023-05-20T06:01:48.294Z,7.00
2023-05-20T06:02:51.170Z,6.36
2023-05-20T06:03:58.454Z,6.40
2023-05-20T06:05:04.802Z,7.10
2023-05-20T06:06:07.416Z,6.30
2023-05-20T06:07:10.175Z,7.10
2023-05-20T06:08:12.932Z,6.20
2023-05-20T06:09:16.444Z,6.55
2023-05-20T06:10:19.367Z,6.10
2023-05-20T06:11:21.822Z,5.40
2023-05-20T06:12:24.150Z,6.30
2023-05-20T06:13:28.141Z,6.30
2023-05-20T06:14:33.075Z,6.10
2023-05-20T06:15:35.616Z,6.30
2023-05-20T06:16:38.472Z,6.20
2023-05-20T06:17:42.566Z,6.60
2023-05-20T06:18:48.507Z,6.70
2023-05-20T06:19:51.344Z,7.20
2023-05-20T06:20:55.760Z,6.09
2023-05-20T06:21:57.931Z,5.60
2023-05-20T06:23:00.044Z,6.30
2023-05-20T06:24:05.417Z,6.80
2023-05-20T06:25:10.199Z,6.70
2023-05-20T06:26:12.745Z,6.30
2023-05-20T06:27:14.941Z,4.80
2023-05-20T06:28:17.562Z,6.50
2023-05-20T06:29:19.912Z,7.10
2023-05-20T06:30:22.359Z,6.30
2023-05-20T06:31:24.743Z,6.60
2023-05-20T06:32:27.869Z,6.80
2023-05-20T06:33:31.955Z,6.60
2023-05-20T06:34:36.131Z,6.40
2023-05-20T06:35:38.413Z,7.40
2023-05-20T06:36:40.677Z,6.50
2023-05-20T06:37:44.928Z,7.50
2023-05-20T06:38:47.665Z,6.70
2023-05-20T06:39:52.494Z,6.00
2023-05-20T06:40:55.977Z,7.10
2023-05-20T06:41:58.299Z,6.40
2023-05-20T06:43:02.621Z,2.20
2023-05-20T06:45:29.176Z,7.70
2023-05-20T06:46:35.280Z,7.30
2023-05-20T06:47:39.462Z,7.20
2023-05-20T06:48:43.619Z,7.50
2023-05-20T06:49:47.517Z,7.30
2023-05-20T06:50:52.144Z,7.20
2023-05-20T06:51:55.429Z,7.55
2023-05-20T06:52:58.172Z,5.90
2023-05-20T06:54:00.587Z,6.60
2023-05-20T06:55:04.644Z,6.90
2023-05-20T06:56:08.258Z,7.30
2023-05-20T06:57:10.543Z,7.55
2023-05-20T06:58:12.885Z,6.70
2023-05-20T06:59:15.168Z,7.20
2023-05-20T07:00:19.204Z,7.60
2023-05-20T07:01:22.872Z,6.20
2023-05-20T07:02:25.608Z,6.50
2023-05-20T07:03:29.906Z,6.50
2023-05-20T07:04:33.514Z,8.20
2023-05-20T07:05:36.068Z,6.40
2023-05-20T07:06:40.056Z,6.30
2023-05-20T07:07:42.439Z,5.90
2023-05-20T07:08:44.965Z,4.00
2023-05-20T07:09:49.720Z,6.50
2023-05-20T07:10:52.908Z,7.09
2023-05-20T07:11:57.592Z,6.00
2023-05-20T07:13:00.554Z,7.10
2023-05-20T07:14:03.020Z,5.64
2023-05-20T07:15:07.856Z,7.00
2023-05-20T07:16:11.048Z,7.30
2023-05-20T07:17:15.757Z,7.80
2023-05-20T07:18:19.838Z,6.70
2023-05-20T07:19:24.192Z,6.80
2023-05-20T07:20:27.362Z,7.10
2023-05-20T07:21:31.737Z,6.40
2023-05-20T07:22:39.748Z,6.40
2023-05-20T07:23:43.952Z,7.30
2023-05-20T07:24:46.239Z,9.00
2023-05-20T07:25:49.623Z,8.40
2023-05-20T07:26:52.091Z,6.20
2023-05-20T07:27:54.515Z,4.40
2023-05-20T07:28:57.753Z,7.30
2023-05-20T07:30:00.203Z,6.30
2023-05-20T07:31:03.580Z,7.80
2023-05-20T07:32:08.862Z,7.60
2023-05-20T07:33:13.165Z,6.70
2023-05-20T07:34:15.795Z,5.80
2023-05-20T07:35:19.224Z,5.82
2023-05-20T07:36:22.098Z,6.70
2023-05-20T07:37:26.705Z,6.60
2023-05-20T07:38:29.400Z,6.80
2023-05-20T07:39:33.499Z,6.90
2023-05-20T07:40:37.003Z,7.20
2023-05-20T07:41:46.542Z,6.70
2023-05-20T07:42:52.981Z,6.90
2023-05-20T07:43:56.808Z,6.40
2023-05-20T07:45:02.531Z,6.80
2023-05-20T07:46:05.832Z,6.80
2023-05-20T07:47:08.476Z,6.73
2023-05-20T07:48:10.888Z,6.50
2023-05-20T07:49:14.311Z,6.36
2023-05-20T07:50:16.896Z,6.30
2023-05-20T07:51:19.284Z,5.60
2023-05-20T07:52:21.712Z,7.90
2023-05-20T07:53:25.945Z,6.20
2023-05-20T07:54:28.657Z,6.70
2023-05-20T07:56:43.535Z,7.00
2023-05-20T07:57:47.396Z,6.20
2023-05-20T08:00:15.478Z,6.20
2023-05-20T08:01:25.587Z,7.50
2023-05-20T08:02:29.635Z,6.80
2023-05-20T08:03:33.644Z,6.10
2023-05-20T08:04:41.741Z,6.50
2023-05-20T08:06:58.944Z,5.40
2023-05-20T08:08:07.382Z,5.40
2023-05-20T08:09:13.223Z,5.30
2023-05-20T08:10:22.701Z,6.10
2023-05-20T08:11:25.328Z,6.10
2023-05-20T08:12:27.704Z,5.90
2023-05-20T08:13:30.126Z,4.70
2023-05-20T08:14:32.955Z,6.10
2023-05-20T08:15:37.131Z,6.00
2023-05-20T08:16:42.709Z,5.40
2023-05-20T08:17:45.134Z,5.30
2023-05-20T08:18:47.686Z,4.90
2023-05-20T08:19:49.954Z,4.70
2023-05-20T08:20:52.436Z,4.90
2023-05-20T08:21:56.762Z,4.90
2023-05-20T08:23:02.450Z,4.70
2023-05-20T08:24:06.391Z,5.30
2023-05-20T08:25:10.777Z,5.20
2023-05-20T08:26:13.649Z,5.60
2023-05-20T08:27:17.375Z,4.30
2023-05-20T08:28:20.980Z,4.80
2023-05-20T08:29:24.786Z,4.40
2023-05-20T08:30:27.330Z,5.60
2023-05-20T08:31:30.547Z,5.80
2023-05-20T08:32:32.952Z,4.10
2023-05-20T08:33:35.270Z,5.00
2023-05-20T08:34:37.569Z,5.10
2023-05-20T08:35:42.757Z,4.60
2023-05-20T08:36:45.645Z,3.90
2023-05-20T08:37:48.197Z,4.45
2023-05-20T08:38:53.275Z,5.10
2023-05-20T08:39:55.944Z,4.60
2023-05-20T08:40:58.682Z,4.70
2023-05-20T08:42:01.730Z,4.70
2023-05-20T08:43:04.579Z,4.50
2023-05-20T08:44:07.945Z,3.82
2023-05-20T08:45:11.844Z,2.90
2023-05-20T08:46:18.198Z,4.60
2023-05-20T08:47:26.548Z,4.10
2023-05-20T08:48:31.856Z,5.00
2023-05-20T08:49:38.378Z,4.40
2023-05-20T08:50:41.236Z,3.60
2023-05-20T08:51:46.171Z,4.40
2023-05-20T08:52:49.808Z,3.18
2023-05-20T08:53:53.013Z,3.70
2023-05-20T08:54:56.697Z,4.10
2023-05-20T08:56:04.026Z,4.80
2023-05-20T08:57:06.471Z,4.70
2023-05-20T08:58:15.493Z,4.00
2023-05-20T08:59:19.566Z,2.80
2023-05-20T09:00:24.196Z,4.00
2023-05-20T09:01:27.922Z,3.60
2023-05-20T09:02:31.024Z,3.50
2023-05-20T09:03:37.241Z,3.90
2023-05-20T09:04:45.880Z,4.50
2023-05-20T09:05:48.478Z,4.30
2023-05-20T09:06:50.858Z,4.00
2023-05-20T09:07:53.759Z,4.20
2023-05-20T09:09:00.046Z,4.20
2023-05-20T09:10:03.621Z,3.50
2023-05-20T09:11:09.992Z,4.50
2023-05-20T09:12:15.251Z,4.00
2023-05-20T09:13:17.490Z,3.30
2023-05-20T09:14:19.932Z,3.60
2023-05-20T09:15:22.691Z,3.40
2023-05-20T09:16:25.312Z,3.70
2023-05-20T09:17:27.849Z,3.30
2023-05-20T09:18:30.461Z,4.00
2023-05-20T09:19:32.908Z,3.60
2023-05-20T09:20:37.082Z,3.36
2023-05-20T09:21:41.429Z,2.80
2023-05-20T09:22:43.806Z,3.70
2023-05-20T09:23:49.410Z,3.50
2023-05-20T09:24:52.014Z,3.20
2023-05-20T09:25:54.833Z,3.40
2023-05-20T09:26:57.696Z,3.91
2023-05-20T09:28:00.135Z,2.91
2023-05-20T09:29:06.943Z,4.00
2023-05-20T09:30:11.764Z,2.80
2023-05-20T09:31:16.429Z,3.60
2023-05-20T09:32:22.870Z,4.30
2023-05-20T09:33:30.004Z,2.90
2023-05-20T09:34:32.436Z,4.10
2023-05-20T09:35:35.781Z,3.70
2023-05-20T09:36:39.564Z,3.50
2023-05-20T09:37:46.592Z,2.80
2023-05-20T09:38:51.551Z,3.20
2023-05-20T09:40:08.397Z,3.20
2023-05-20T09:41:14.601Z,3.10
2023-05-20T09:42:32.706Z,3.40
2023-05-20T09:43:36.089Z,3.80
2023-05-20T09:44:38.424Z,4.00
2023-05-20T09:45:40.965Z,3.10
2023-05-20T09:46:45.621Z,1.70
2023-05-20T09:47:50.467Z,3.90
2023-05-20T09:48:57.288Z,4.80
2023-05-20T09:50:02.165Z,4.30
2023-05-20T09:51:05.840Z,4.27
2023-05-20T09:52:08.245Z,4.10
2023-05-20T09:53:11.346Z,3.60
2023-05-20T09:54:15.293Z,3.80
2023-05-20T09:55:20.368Z,4.10
2023-05-20T09:56:25.680Z,4.00
2023-05-20T09:58:44.471Z,4.30
2023-05-20T09:59:50.523Z,4.10
2023-05-20T10:00:56.505Z,4.20
2023-05-20T10:01:59.938Z,4.20
2023-05-20T10:03:02.500Z,3.90
2023-05-20T10:04:07.080Z,3.00
2023-05-20T10:06:35.364Z,4.60
2023-05-20T10:08:04.105Z,3.60
2023-05-20T10:09:16.714Z,4.00
2023-05-20T10:10:31.544Z,3.40
2023-05-20T10:11:40.365Z,3.90
2023-05-20T10:14:30.976Z,4.20
2023-05-20T10:15:42.870Z,4.60
2023-05-20T10:16:54.134Z,4.80
2023-05-20T10:18:00.132Z,3.90
2023-05-20T10:19:12.314Z,3.90
2023-05-20T10:20:16.062Z,3.10
2023-05-20T10:21:22.157Z,3.45
2023-05-20T10:22:29.363Z,3.80
2023-05-20T10:23:32.963Z,4.20
2023-05-20T10:24:41.879Z,3.30
2023-05-20T10:25:47.729Z,4.10
2023-05-20T10:26:53.983Z,4.00
2023-05-20T10:28:10.423Z,3.20
2023-05-20T10:29:17.194Z,3.60
2023-05-20T10:30:21.461Z,4.40
2023-05-20T10:31:23.830Z,4.40
2023-05-20T10:33:46.299Z,4.80
2023-05-20T10:34:50.239Z,5.50
2023-05-20T10:35:53.833Z,5.20
2023-05-20T10:36:58.382Z,3.90
2023-05-20T10:38:11.667Z,4.50
2023-05-20T10:39:16.554Z,3.40
2023-05-20T10:40:20.840Z,3.90
2023-05-20T10:41:27.813Z,4.10
2023-05-20T10:42:30.195Z,4.00
2023-05-20T10:43:32.463Z,5.00
2023-05-20T10:44:47.409Z,4.80
2023-05-20T10:45:57.305Z,4.20
2023-05-20T10:47:21.076Z,4.10
2023-05-20T10:48:07.318Z,4.40
2023-05-20T10:49:20.980Z,3.60
2023-05-20T10:51:39.686Z,4.80
2023-05-20T10:52:42.984Z,4.20
2023-05-20T10:53:47.141Z,4.90
2023-05-20T10:56:17.732Z,6.00
2023-05-20T10:57:20.823Z,4.50
2023-05-20T10:58:24.415Z,5.00
2023-05-20T10:59:26.865Z,5.00
2023-05-20T11:00:29.538Z,4.91
2023-05-20T11:01:32.338Z,5.00
2023-05-20T11:03:57.640Z,4.70
2023-05-20T11:05:01.123Z,4.20
2023-05-20T11:06:15.361Z,4.50
2023-05-20T11:07:28.926Z,5.10
2023-05-20T11:08:31.303Z,5.40
2023-05-20T11:09:33.836Z,3.90
2023-05-20T11:10:37.350Z,4.00
2023-05-20T11:11:40.893Z,3.80
2023-05-20T11:13:57.884Z,4.20
2023-05-20T11:15:00.916Z,3.90
2023-05-20T11:16:06.094Z,4.30
2023-05-20T11:17:08.649Z,3.80
2023-05-20T11:18:12.467Z,4.10
2023-05-20T11:19:15.589Z,3.80
2023-05-20T11:20:19.118Z,4.80
2023-05-20T11:21:21.420Z,5.00
2023-05-20T11:22:24.237Z,4.70
2023-05-20T11:23:27.792Z,5.00
2023-05-20T11:24:29.870Z,4.60
2023-05-20T11:25:32.743Z,6.10
2023-05-20T11:26:36.722Z,5.40
2023-05-20T11:27:40.607Z,5.00
2023-05-20T11:28:43.225Z,3.80
2023-05-20T11:29:51.860Z,5.10
2023-05-20T11:30:55.436Z,5.10
2023-05-20T11:31:59.276Z,4.20
2023-05-20T11:33:03.465Z,5.60
2023-05-20T11:34:08.562Z,3.90
2023-05-20T11:35:22.325Z,3.70
2023-05-20T11:36:27.854Z,4.20
2023-05-20T11:37:29.805Z,5.20
2023-05-20T11:38:32.078Z,4.20
2023-05-20T11:39:35.415Z,5.00
2023-05-20T11:42:00.158Z,5.80
2023-05-20T11:43:03.070Z,4.70
2023-05-20T11:44:10.331Z,5.10
2023-05-20T11:45:13.605Z,5.10
2023-05-20T11:46:18.362Z,5.80
2023-05-20T11:47:25.447Z,4.70
2023-05-20T11:48:28.027Z,4.70
2023-05-20T11:49:31.631Z,5.30
2023-05-20T11:50:37.371Z,4.70
2023-05-20T11:51:40.132Z,5.50
2023-05-20T11:52:42.415Z,5.10
2023-05-20T11:53:46.644Z,4.10
2023-05-20T11:54:52.634Z,5.20
2023-05-20T11:55:57.385Z,5.50
2023-05-20T11:57:01.875Z,5.60
2023-05-20T11:58:04.226Z,4.90
2023-05-20T11:59:08.814Z,4.50
2023-05-20T12:00:12.904Z,4.20
2023-05-20T12:01:22.457Z,4.50
2023-05-20T12:02:19.787Z,4.20
2023-05-20T12:04:35.722Z,4.60
2023-05-20T12:05:39.380Z,4.30
2023-05-20T12:06:42.197Z,4.50
2023-05-20T12:07:45.017Z,4.18
2023-05-20T12:08:48.714Z,4.73
2023-05-20T12:09:51.073Z,5.10
2023-05-20T12:10:55.313Z,4.10
2023-05-20T12:11:58.209Z,4.60
2023-05-20T12:13:00.879Z,4.70
2023-05-20T12:14:03.583Z,4.70
2023-05-20T12:15:11.217Z,4.20
2023-05-20T12:16:14.292Z,3.90
2023-05-20T12:17:16.579Z,5.40
2023-05-20T12:18:19.779Z,4.60
2023-05-20T12:19:22.126Z,4.20
2023-05-20T12:20:25.466Z,4.50
2023-05-20T12:21:29.065Z,4.70
2023-05-20T12:23:47.608Z,4.00
2023-05-20T12:24:50.112Z,5.30
2023-05-20T12:25:55.755Z,3.70
2023-05-20T12:26:57.964Z,4.20
2023-05-20T12:28:01.875Z,5.00
2023-05-20T12:29:05.311Z,4.50
2023-05-20T12:30:09.440Z,4.00
2023-05-20T12:31:13.950Z,5.00
2023-05-20T12:32:16.397Z,5.00
2023-05-20T12:33:18.534Z,3.70
2023-05-20T12:34:20.664Z,4.56
2023-05-20T12:35:40.787Z,3.60
2023-05-20T12:36:43.530Z,5.00
2023-05-20T12:38:53.788Z,4.70
2023-05-20T12:39:56.082Z,4.70
2023-05-20T12:40:58.284Z,4.30
2023-05-20T12:42:00.513Z,2.80
2023-05-20T12:43:04.688Z,4.30
2023-05-20T12:44:06.932Z,4.10
2023-05-20T12:45:09.368Z,4.20
2023-05-20T12:46:12.613Z,4.90
2023-05-20T12:47:18.561Z,4.40
2023-05-20T12:48:21.797Z,4.00
2023-05-20T12:49:25.156Z,3.90
2023-05-20T12:50:28.059Z,3.40
2023-05-20T12:51:30.294Z,4.50
2023-05-20T12:52:33.420Z,3.90
2023-05-20T12:53:36.212Z,4.10
2023-05-20T12:54:38.229Z,3.40
2023-05-20T12:55:40.252Z,3.70
2023-05-20T12:56:42.985Z,3.40
2023-05-20T12:57:46.378Z,3.64
2023-05-20T12:58:48.572Z,3.30
2023-05-20T12:59:51.079Z,4.50
2023-05-20T13:00:53.873Z,3.64
2023-05-20T13:01:56.716Z,3.00
2023-05-20T13:04:09.224Z,4.00
2023-05-20T13:05:12.506Z,3.27
2023-05-20T13:06:15.332Z,3.10
2023-05-20T13:08:33.384Z,3.60
2023-05-20T13:09:36.371Z,3.27
2023-05-20T13:10:38.634Z,3.27
2023-05-20T13:11:40.774Z,3.40
2023-05-20T13:12:43.196Z,3.20
2023-05-20T13:15:00.770Z,4.00
2023-05-20T13:16:05.678Z,3.30
2023-05-20T13:17:08.085Z,3.30
2023-05-20T13:18:10.918Z,3.45
2023-05-20T14:07:18.139Z,3.50
2023-05-20T14:17:58.145Z,3.60
2023-05-20T14:19:00.845Z,2.80
2023-05-20T14:20:32.744Z,2.70
2023-05-20T14:21:35.896Z,3.00
2023-05-20T14:22:38.733Z,2.91
2023-05-20T14:23:41.597Z,3.00
2023-05-20T14:24:44.460Z,3.64
2023-05-20T14:25:46.959Z,3.64
2023-05-20T14:40:15.079Z,4.40
2023-05-20T14:41:35.928Z,3.80
2023-05-20T14:42:41.846Z,3.90
2023-05-20T14:43:44.553Z,3.70
2023-05-20T14:44:49.643Z,4.20
2023-05-20T14:45:52.875Z,3.60
2023-05-20T14:46:55.750Z,3.00
2023-05-20T14:47:58.688Z,3.40
2023-05-20T14:50:30.319Z,3.20
2023-05-20T14:51:32.851Z,3.27
2023-05-20T14:52:35.460Z,3.30
2023-05-20T14:54:47.931Z,3.00
2023-05-20T14:55:51.442Z,3.50
2023-05-20T14:56:54.900Z,4.20
2023-05-20T14:57:57.258Z,3.50
2023-05-20T14:58:59.444Z,4.00
2023-05-20T15:01:13.339Z,2.90
2023-05-20T15:02:16.067Z,1.60
2023-05-20T15:03:22.992Z,3.55
2023-05-20T15:04:26.988Z,3.50
2023-05-20T15:05:29.419Z,3.70
2023-05-20T15:06:32.606Z,4.10
2023-05-20T15:07:35.891Z,2.00
2023-05-20T15:08:38.225Z,3.80
2023-05-20T15:09:40.860Z,3.50
2023-05-20T15:10:44.271Z,4.18
2023-05-20T15:11:47.376Z,4.00
2023-05-20T15:12:49.509Z,3.00
2023-05-20T15:13:52.829Z,3.90
2023-05-20T15:14:56.970Z,3.00
2023-05-20T15:16:00.598Z,3.10
2023-05-20T15:18:17.128Z,5.00
2023-05-20T15:19:19.981Z,4.10
2023-05-20T15:20:23.853Z,3.40
2023-05-20T15:21:27.574Z,4.30
2023-05-20T15:22:30.597Z,3.40
2023-05-20T15:23:32.947Z,3.45
2023-05-20T15:24:35.277Z,4.20
2023-05-20T15:25:38.765Z,3.20
2023-05-20T15:26:42.857Z,3.80
2023-05-20T15:29:10.568Z,3.80
2023-05-20T15:30:14.803Z,3.00
2023-05-20T15:31:17.077Z,3.30
2023-05-20T15:32:20.571Z,4.60
2023-05-20T15:33:23.111Z,4.40
2023-05-20T15:34:25.514Z,3.80
2023-05-20T15:35:29.369Z,3.70
2023-05-20T15:36:32.318Z,4.20
2023-05-20T15:38:49.794Z,4.80
2023-05-20T15:39:52.357Z,3.60
2023-05-20T15:40:54.888Z,3.50
2023-05-20T15:41:57.196Z,3.50
2023-05-20T15:42:59.482Z,3.00
2023-05-20T15:44:01.582Z,2.90
2023-05-20T15:45:05.224Z,4.20
2023-05-20T15:46:08.134Z,3.60
2023-05-20T15:47:10.922Z,3.90
2023-05-20T15:48:13.407Z,2.90
2023-05-20T15:49:16.350Z,3.20
2023-05-20T15:50:18.784Z,4.00
2023-05-20T15:51:21.067Z,3.90
2023-05-20T15:52:23.473Z,3.80
2023-05-20T15:53:25.938Z,1.70
2023-05-20T15:54:28.563Z,3.50
2023-05-20T15:56:40.475Z,3.30
2023-05-20T15:57:42.608Z,3.90
2023-05-20T15:58:45.108Z,3.30
2023-05-20T16:00:58.276Z,5.00
2023-05-20T16:03:16.486Z,4.10
2023-05-20T16:04:35.183Z,3.70
2023-05-20T16:05:37.399Z,3.70
2023-05-20T16:06:40.051Z,4.50